Terminal Aerodrome Forecast
Issued by NWS Charleston, WV

Current Version | Previous Version | Graphics & Text | Print | Product List | Glossary Off
Versions: 1 2 3 4 5 6 7 8 9 10 11 12 13 14 15 16 17 18 19 20 21 22 23 24

000
FTUS41 KRLX 271700
TAFPKB
TAF
KPKB 271725Z 2718/2818 31012G22KT P6SM BKN050
     FM272300 34008KT P6SM SCT050
     FM280400 VRB03KT P6SM SCT045
     FM280700 00000KT P6SM SCT060
     FM281400 36004KT P6SM SCT070=

USA.gov is the U.S. government's official web portal to all federal, state and local government web resources and services.